Tropical Cyclones
[Index]
Main Index Home Page Stock Weather Photos Extreme Storms Discussion Storm News and Storm Chasing Reports Tropical Cyclones / Hurricanes / Typhoons Weather Data and Links Wild Fires / Bushfires Weather Observation Techniques Weather Picture Catalogue Tornado Pictures and Reports Stock Video Footage and DVDs for sale
Season 1996-1997 Tropical Cyclone LINDSAY Track Map
Season 1996-1997 Summaries: [BoM-AU] [JTWC-AU] [JTWC-SIO] [JTWC-SPAC] [JTWC-SH]
<<- Previous TC | BoM 1996-1997 Season | Next TC ->>

click for intensity scale information  Lat/long Grid: Show Hide

 Date Labels: Show Hide

Bureau of Meteorology Tropical Cyclone Data

Name: LINDSAY
Number: 792 / 199697_01

09 Jul 1996 10:00 UTC to 13 Jul 1996 00:00 UTC

    date/time    lat    long    hPa   cat  kts
1996-07-09 10    9.3    93.3   1004         21          
1996-07-09 12    9.7    93.0   1004         21          
1996-07-09 15   10.0    92.8   1002         23          
1996-07-09 18   10.3    92.6   1002         23          
1996-07-09 21   10.7    92.5   1000         27          
1996-07-10 00   11.1    92.4   1000         27          
1996-07-10 03   11.4    92.3    998         29          
1996-07-10 06   11.7    92.2    998         29          
1996-07-10 09   12.0    92.1    995    1    35          
1996-07-10 12   12.2    92.0    990    1    41          
1996-07-10 15   12.3    92.0    990    1    41          
1996-07-10 18   12.3    92.0    990    1    41          
1996-07-10 21   12.3    92.0    990    1    41          
1996-07-11 00   12.3    92.0    990    1    41          
1996-07-11 03   12.3    92.1    992    1    39          
1996-07-11 06   12.4    92.2    994    1    35          
1996-07-11 09   12.4    92.3    996         33          
1996-07-11 12   12.5    92.4    998         29          
1996-07-11 15   12.5    92.5    998         29          
1996-07-11 18   12.6    92.6    998         29          
1996-07-11 21   12.7    92.7    998         29          
1996-07-12 00   12.9    92.9    998         29          
1996-07-12 03   13.2    93.2    998         29          
1996-07-12 06   13.5    93.5    998         29          
1996-07-12 09   13.8    93.8    998         29          
1996-07-12 12   14.1    94.1    998         29          
1996-07-12 15   14.4    94.4    998         29          
1996-07-12 18   14.7    94.7    998         29          
1996-07-12 21   15.0    95.0    998         29          
1996-07-13 00   15.3    95.3   1000         27          
Winds are 10-min average.

Tropical cyclone tracks developed by Michael Bath using data from the Bureau of Meteorology and Google Maps.


[Australian Severe Weather index] [Copyright Notice] [Email Contacts] [Search This Site] [Privacy Policy]
Document: tropical_cyclone_lindsay.htm Updated: 30 May 2013